Wyoming, MN (55092)

4:00 PM CST on February 13, 2016 (GMT -0600)
AC Columbus | | Change Station
CLOSE
Current Station
Personal Weather Station
Location: Columbus, MN
Elevation: 899 ft
Nearby Weather Stations

Elev 899 ft 45.30 °N, 93.10 °W | Updated 5 minutes ago

Clear
Clear
12.2 °F
Feels Like 12 °F
N
0.0
Wind Variable Wind from ESE
Gusts 4.0 mph

Today
High -- | Low -- °F
--% Chance of Precip.
Yesterday
High -- | Low -- °F
Precip. -- in
Pressure 30.45 in
Visibility 10.0 miles
Clouds Few 25000 ft
Windchill 12 °F
Dew Point -6 °F
Humidity 45%
Rainfall 0.00 in
Snow Depth Not available.
7:17 AM 5:36 PM
Waxing Crescent, 34% visible
METAR KANE 132145Z 13005KT 10SM FEW250 M10/M22 A3045
Pressure 30.45 in
Visibility 10.0 miles
Clouds Few 25000 ft
Windchill 12 °F
Dew Point -6 °F
Humidity 45%
Rainfall 0.00 in
Snow Depth Not available.
7:17 AM 5:36 PM
Waxing Crescent, 34% visible
METAR KANE 132145Z 13005KT 10SM FEW250 M10/M22 A3045

10-Day Weather Forecast

Almanac

Astronomy

Feb. 13, 2016 Rise Set
Actual Time
Civil Twilight
Nautical Twilight
Astronomical Twilight
Moon
Length of Visible Light
Length of Day
Tomorrow will be .
, % of the Moon is Illuminated

Today's Extremes

State Highs State Lows

Community

WunderPhotos

Upload Photos

1,892,682 photos uploaded!

WunderBlog® & News

Nearby

Air Quality

  Air Quality AQ Index Pollutant
Not available.

Snow Depth

Station Depth Elevation

Earthquake Activity

City Distance Mag. Time & Date
Minimum magnitude displayed is 2.5.

Coastal Water Temperatures

Place Temperature

Stations

Nearby Weather Stations

Station Location Temp. Windchill Dew Point Humidity Wind Precip. Elev Updated Type
                   

Watches & Warnings

There are currently no watches in effect.